sensor_id;sensor_type;location;lat;lon;timestamp;P1;durP1;ratioP1;P2;durP2;ratioP2
45893;SDS011;31603;51.148;16.932;2022-07-29T00:00:44;4.72;;;1.98;;
45893;SDS011;31603;51.148;16.932;2022-07-29T00:03:11;3.42;;;1.63;;
45893;SDS011;31603;51.148;16.932;2022-07-29T00:05:37;3.35;;;2.00;;
45893;SDS011;31603;51.148;16.932;2022-07-29T00:08:05;4.13;;;1.90;;
45893;SDS011;31603;51.148;16.932;2022-07-29T00:10:32;6.03;;;2.15;;
45893;SDS011;31603;51.148;16.932;2022-07-29T00:13:00;5.03;;;2.20;;
45893;SDS011;31603;51.148;16.932;2022-07-29T00:15:27;3.40;;;1.60;;
45893;SDS011;31603;51.148;16.932;2022-07-29T00:17:53;14.05;;;2.33;;
45893;SDS011;31603;51.148;16.932;2022-07-29T00:20:20;4.05;;;1.88;;
45893;SDS011;31603;51.148;16.932;2022-07-29T00:22:46;2.75;;;1.70;;
45893;SDS011;31603;51.148;16.932;2022-07-29T00:25:13;3.47;;;1.63;;
45893;SDS011;31603;51.148;16.932;2022-07-29T00:27:39;3.65;;;2.15;;
45893;SDS011;31603;51.148;16.932;2022-07-29T00:30:08;4.15;;;2.20;;
45893;SDS011;31603;51.148;16.932;2022-07-29T00:32:34;6.38;;;1.95;;
45893;SDS011;31603;51.148;16.932;2022-07-29T00:35:01;3.63;;;1.80;;
45893;SDS011;31603;51.148;16.932;2022-07-29T00:37:45;3.78;;;1.75;;
45893;SDS011;31603;51.148;16.932;2022-07-29T00:40:11;3.42;;;1.75;;
45893;SDS011;31603;51.148;16.932;2022-07-29T00:42:41;3.10;;;1.70;;
45893;SDS011;31603;51.148;16.932;2022-07-29T00:45:10;3.28;;;1.70;;
45893;SDS011;31603;51.148;16.932;2022-07-29T00:47:37;5.70;;;2.10;;
45893;SDS011;31603;51.148;16.932;2022-07-29T00:50:05;4.55;;;1.90;;
45893;SDS011;31603;51.148;16.932;2022-07-29T00:52:33;4.50;;;1.95;;
45893;SDS011;31603;51.148;16.932;2022-07-29T00:55:02;4.82;;;2.35;;
45893;SDS011;31603;51.148;16.932;2022-07-29T00:57:29;4.88;;;2.33;;
45893;SDS011;31603;51.148;16.932;2022-07-29T00:59:58;4.35;;;2.72;;
45893;SDS011;31603;51.148;16.932;2022-07-29T01:02:27;4.50;;;2.40;;
45893;SDS011;31603;51.148;16.932;2022-07-29T01:04:56;6.97;;;1.98;;
45893;SDS011;31603;51.148;16.932;2022-07-29T01:07:23;4.78;;;2.25;;
45893;SDS011;31603;51.148;16.932;2022-07-29T01:09:51;3.88;;;1.85;;
45893;SDS011;31603;51.148;16.932;2022-07-29T01:12:21;3.65;;;1.80;;
45893;SDS011;31603;51.148;16.932;2022-07-29T01:14:50;5.03;;;2.03;;
45893;SDS011;31603;51.148;16.932;2022-07-29T01:17:21;7.05;;;2.33;;
45893;SDS011;31603;51.148;16.932;2022-07-29T01:19:52;12.25;;;2.55;;
45893;SDS011;31603;51.148;16.932;2022-07-29T01:22:35;5.35;;;2.20;;
45893;SDS011;31603;51.148;16.932;2022-07-29T01:25:20;5.03;;;2.15;;
45893;SDS011;31603;51.148;16.932;2022-07-29T01:28:01;5.53;;;2.42;;
45893;SDS011;31603;51.148;16.932;2022-07-29T01:30:44;2.97;;;1.98;;
45893;SDS011;31603;51.148;16.932;2022-07-29T01:33:13;5.82;;;2.28;;
45893;SDS011;31603;51.148;16.932;2022-07-29T01:35:59;6.50;;;2.15;;
45893;SDS011;31603;51.148;16.932;2022-07-29T01:38:30;4.80;;;2.30;;
45893;SDS011;31603;51.148;16.932;2022-07-29T01:40:58;4.32;;;2.00;;
45893;SDS011;31603;51.148;16.932;2022-07-29T01:43:32;4.40;;;2.17;;
45893;SDS011;31603;51.148;16.932;2022-07-29T01:46:04;3.70;;;1.92;;
45893;SDS011;31603;51.148;16.932;2022-07-29T01:48:36;3.55;;;1.67;;
45893;SDS011;31603;51.148;16.932;2022-07-29T01:51:09;5.68;;;2.25;;
45893;SDS011;31603;51.148;16.932;2022-07-29T01:53:42;3.97;;;1.98;;
45893;SDS011;31603;51.148;16.932;2022-07-29T01:56:13;6.22;;;1.98;;
45893;SDS011;31603;51.148;16.932;2022-07-29T01:58:42;4.55;;;1.95;;
45893;SDS011;31603;51.148;16.932;2022-07-29T02:01:12;5.97;;;2.35;;
45893;SDS011;31603;51.148;16.932;2022-07-29T02:03:41;12.07;;;2.63;;
45893;SDS011;31603;51.148;16.932;2022-07-29T02:06:09;4.55;;;2.13;;
45893;SDS011;31603;51.148;16.932;2022-07-29T02:08:37;6.45;;;2.33;;
45893;SDS011;31603;51.148;16.932;2022-07-29T02:11:06;6.53;;;2.40;;
45893;SDS011;31603;51.148;16.932;2022-07-29T02:13:34;4.25;;;2.08;;
45893;SDS011;31603;51.148;16.932;2022-07-29T02:16:03;3.20;;;1.83;;
45893;SDS011;31603;51.148;16.932;2022-07-29T02:18:34;5.70;;;2.30;;
45893;SDS011;31603;51.148;16.932;2022-07-29T02:21:03;5.03;;;2.08;;
45893;SDS011;31603;51.148;16.932;2022-07-29T02:23:32;4.10;;;2.20;;
45893;SDS011;31603;51.148;16.932;2022-07-29T02:26:02;6.50;;;2.42;;
45893;SDS011;31603;51.148;16.932;2022-07-29T02:28:29;7.47;;;2.38;;
45893;SDS011;31603;51.148;16.932;2022-07-29T02:30:59;4.32;;;2.35;;
45893;SDS011;31603;51.148;16.932;2022-07-29T02:33:28;3.80;;;2.08;;
45893;SDS011;31603;51.148;16.932;2022-07-29T02:35:58;5.68;;;2.30;;
45893;SDS011;31603;51.148;16.932;2022-07-29T02:38:26;4.25;;;2.10;;
45893;SDS011;31603;51.148;16.932;2022-07-29T02:41:17;5.35;;;2.40;;
45893;SDS011;31603;51.148;16.932;2022-07-29T02:43:46;4.57;;;2.10;;
45893;SDS011;31603;51.148;16.932;2022-07-29T02:46:16;4.57;;;2.50;;
45893;SDS011;31603;51.148;16.932;2022-07-29T02:48:55;4.55;;;2.53;;
45893;SDS011;31603;51.148;16.932;2022-07-29T02:51:32;5.03;;;2.15;;
45893;SDS011;31603;51.148;16.932;2022-07-29T02:54:04;3.55;;;2.25;;
45893;SDS011;31603;51.148;16.932;2022-07-29T02:56:33;4.35;;;2.50;;
45893;SDS011;31603;51.148;16.932;2022-07-29T02:59:03;5.95;;;2.28;;
45893;SDS011;31603;51.148;16.932;2022-07-29T03:01:33;3.97;;;2.20;;
45893;SDS011;31603;51.148;16.932;2022-07-29T03:04:04;4.03;;;2.30;;
45893;SDS011;31603;51.148;16.932;2022-07-29T03:06:32;8.18;;;2.65;;
45893;SDS011;31603;51.148;16.932;2022-07-29T03:09:00;4.05;;;2.45;;
45893;SDS011;31603;51.148;16.932;2022-07-29T03:11:27;5.63;;;2.13;;
45893;SDS011;31603;51.148;16.932;2022-07-29T03:13:56;4.32;;;2.15;;
45893;SDS011;31603;51.148;16.932;2022-07-29T03:16:23;6.05;;;2.63;;
45893;SDS011;31603;51.148;16.932;2022-07-29T03:18:49;5.93;;;2.20;;
45893;SDS011;31603;51.148;16.932;2022-07-29T03:21:17;3.97;;;2.50;;
45893;SDS011;31603;51.148;16.932;2022-07-29T03:23:45;4.55;;;2.63;;
45893;SDS011;31603;51.148;16.932;2022-07-29T03:26:11;6.00;;;2.40;;
45893;SDS011;31603;51.148;16.932;2022-07-29T03:28:39;5.05;;;2.58;;
45893;SDS011;31603;51.148;16.932;2022-07-29T03:31:06;6.43;;;2.78;;
45893;SDS011;31603;51.148;16.932;2022-07-29T03:33:32;5.63;;;2.75;;
45893;SDS011;31603;51.148;16.932;2022-07-29T03:35:59;5.18;;;2.65;;
45893;SDS011;31603;51.148;16.932;2022-07-29T03:38:28;5.00;;;2.22;;
45893;SDS011;31603;51.148;16.932;2022-07-29T03:40:58;11.38;;;3.33;;
45893;SDS011;31603;51.148;16.932;2022-07-29T03:43:29;6.07;;;2.65;;
45893;SDS011;31603;51.148;16.932;2022-07-29T03:45:58;8.35;;;2.67;;
45893;SDS011;31603;51.148;16.932;2022-07-29T03:48:26;6.30;;;3.05;;
45893;SDS011;31603;51.148;16.932;2022-07-29T03:51:00;5.45;;;2.72;;
45893;SDS011;31603;51.148;16.932;2022-07-29T03:53:30;4.38;;;2.72;;
45893;SDS011;31603;51.148;16.932;2022-07-29T03:56:03;6.40;;;3.25;;
45893;SDS011;31603;51.148;16.932;2022-07-29T03:58:31;4.80;;;2.75;;
45893;SDS011;31603;51.148;16.932;2022-07-29T04:00:59;7.90;;;2.45;;
45893;SDS011;31603;51.148;16.932;2022-07-29T04:03:25;3.97;;;2.53;;
45893;SDS011;31603;51.148;16.932;2022-07-29T04:06:02;4.43;;;2.88;;
45893;SDS011;31603;51.148;16.932;2022-07-29T04:08:31;8.98;;;3.38;;
45893;SDS011;31603;51.148;16.932;2022-07-29T04:10:58;8.88;;;3.60;;
45893;SDS011;31603;51.148;16.932;2022-07-29T04:13:26;12.25;;;4.00;;
45893;SDS011;31603;51.148;16.932;2022-07-29T04:15:52;6.57;;;3.20;;
45893;SDS011;31603;51.148;16.932;2022-07-29T04:18:19;6.72;;;2.85;;
45893;SDS011;31603;51.148;16.932;2022-07-29T04:20:50;6.00;;;3.00;;
45893;SDS011;31603;51.148;16.932;2022-07-29T04:23:16;7.38;;;3.22;;
45893;SDS011;31603;51.148;16.932;2022-07-29T04:25:43;8.35;;;4.43;;
45893;SDS011;31603;51.148;16.932;2022-07-29T04:28:09;6.47;;;3.30;;
45893;SDS011;31603;51.148;16.932;2022-07-29T04:30:38;5.88;;;2.85;;
45893;SDS011;31603;51.148;16.932;2022-07-29T04:33:05;8.95;;;3.33;;
45893;SDS011;31603;51.148;16.932;2022-07-29T04:35:33;4.47;;;2.70;;
45893;SDS011;31603;51.148;16.932;2022-07-29T04:38:02;8.00;;;3.20;;
45893;SDS011;31603;51.148;16.932;2022-07-29T04:40:29;5.55;;;3.00;;
45893;SDS011;31603;51.148;16.932;2022-07-29T04:42:55;5.25;;;2.90;;
45893;SDS011;31603;51.148;16.932;2022-07-29T04:45:21;5.00;;;3.30;;
45893;SDS011;31603;51.148;16.932;2022-07-29T04:47:51;4.43;;;2.80;;
45893;SDS011;31603;51.148;16.932;2022-07-29T04:50:20;7.68;;;3.72;;
45893;SDS011;31603;51.148;16.932;2022-07-29T04:52:47;9.40;;;3.03;;
45893;SDS011;31603;51.148;16.932;2022-07-29T04:55:13;5.03;;;3.00;;
45893;SDS011;31603;51.148;16.932;2022-07-29T04:57:40;6.93;;;2.95;;
45893;SDS011;31603;51.148;16.932;2022-07-29T05:00:07;7.00;;;3.00;;
45893;SDS011;31603;51.148;16.932;2022-07-29T05:02:34;5.00;;;2.63;;
45893;SDS011;31603;51.148;16.932;2022-07-29T05:05:04;5.57;;;2.75;;
45893;SDS011;31603;51.148;16.932;2022-07-29T05:07:31;8.45;;;2.83;;
45893;SDS011;31603;51.148;16.932;2022-07-29T05:09:57;7.45;;;2.78;;
45893;SDS011;31603;51.148;16.932;2022-07-29T05:12:24;7.68;;;2.60;;
45893;SDS011;31603;51.148;16.932;2022-07-29T05:15:13;5.18;;;2.55;;
45893;SDS011;31603;51.148;16.932;2022-07-29T05:17:45;6.10;;;2.78;;
45893;SDS011;31603;51.148;16.932;2022-07-29T05:20:22;5.47;;;2.67;;
45893;SDS011;31603;51.148;16.932;2022-07-29T05:22:59;4.00;;;2.17;;
45893;SDS011;31603;51.148;16.932;2022-07-29T05:25:39;8.55;;;3.28;;
45893;SDS011;31603;51.148;16.932;2022-07-29T05:28:05;4.60;;;2.45;;
45893;SDS011;31603;51.148;16.932;2022-07-29T05:30:32;7.80;;;2.67;;
45893;SDS011;31603;51.148;16.932;2022-07-29T05:32:58;6.25;;;2.50;;
45893;SDS011;31603;51.148;16.932;2022-07-29T05:35:26;7.07;;;2.58;;
45893;SDS011;31603;51.148;16.932;2022-07-29T05:37:52;3.97;;;2.30;;
45893;SDS011;31603;51.148;16.932;2022-07-29T05:40:19;7.35;;;2.78;;
45893;SDS011;31603;51.148;16.932;2022-07-29T05:42:46;6.00;;;2.78;;
45893;SDS011;31603;51.148;16.932;2022-07-29T05:45:24;12.68;;;3.00;;
45893;SDS011;31603;51.148;16.932;2022-07-29T05:47:54;7.53;;;2.33;;
45893;SDS011;31603;51.148;16.932;2022-07-29T05:50:22;5.03;;;2.70;;
45893;SDS011;31603;51.148;16.932;2022-07-29T05:52:53;6.10;;;2.53;;
45893;SDS011;31603;51.148;16.932;2022-07-29T05:55:21;6.32;;;2.42;;
45893;SDS011;31603;51.148;16.932;2022-07-29T05:57:47;4.85;;;2.50;;
45893;SDS011;31603;51.148;16.932;2022-07-29T06:00:14;3.22;;;2.35;;
45893;SDS011;31603;51.148;16.932;2022-07-29T06:02:43;5.18;;;2.40;;
45893;SDS011;31603;51.148;16.932;2022-07-29T06:05:10;4.80;;;1.95;;
45893;SDS011;31603;51.148;16.932;2022-07-29T06:07:36;5.65;;;2.60;;
45893;SDS011;31603;51.148;16.932;2022-07-29T06:10:04;6.88;;;2.42;;
45893;SDS011;31603;51.148;16.932;2022-07-29T06:12:33;8.13;;;2.70;;
45893;SDS011;31603;51.148;16.932;2022-07-29T06:15:01;4.05;;;2.13;;
45893;SDS011;31603;51.148;16.932;2022-07-29T06:17:28;5.40;;;2.38;;
45893;SDS011;31603;51.148;16.932;2022-07-29T06:19:54;4.07;;;2.15;;
45893;SDS011;31603;51.148;16.932;2022-07-29T06:22:20;7.78;;;2.80;;
45893;SDS011;31603;51.148;16.932;2022-07-29T06:24:47;6.68;;;1.92;;
45893;SDS011;31603;51.148;16.932;2022-07-29T06:27:15;4.53;;;2.13;;
45893;SDS011;31603;51.148;16.932;2022-07-29T06:29:41;3.88;;;2.30;;
45893;SDS011;31603;51.148;16.932;2022-07-29T06:32:08;5.78;;;2.47;;
45893;SDS011;31603;51.148;16.932;2022-07-29T06:34:35;4.53;;;2.13;;
45893;SDS011;31603;51.148;16.932;2022-07-29T06:37:05;3.30;;;1.92;;
45893;SDS011;31603;51.148;16.932;2022-07-29T06:39:33;7.25;;;1.65;;
45893;SDS011;31603;51.148;16.932;2022-07-29T06:42:00;7.60;;;1.98;;
45893;SDS011;31603;51.148;16.932;2022-07-29T06:44:28;4.97;;;2.42;;
45893;SDS011;31603;51.148;16.932;2022-07-29T06:46:54;5.93;;;1.88;;
45893;SDS011;31603;51.148;16.932;2022-07-29T06:49:21;3.90;;;1.95;;
45893;SDS011;31603;51.148;16.932;2022-07-29T06:51:49;4.78;;;1.73;;
45893;SDS011;31603;51.148;16.932;2022-07-29T06:54:22;4.75;;;1.80;;
45893;SDS011;31603;51.148;16.932;2022-07-29T06:56:50;8.32;;;2.20;;
45893;SDS011;31603;51.148;16.932;2022-07-29T06:59:17;6.43;;;2.22;;
45893;SDS011;31603;51.148;16.932;2022-07-29T07:01:44;3.78;;;1.80;;
45893;SDS011;31603;51.148;16.932;2022-07-29T07:04:11;10.68;;;1.90;;
45893;SDS011;31603;51.148;16.932;2022-07-29T07:06:38;4.55;;;1.80;;
45893;SDS011;31603;51.148;16.932;2022-07-29T07:09:05;3.17;;;1.75;;
45893;SDS011;31603;51.148;16.932;2022-07-29T07:11:32;6.38;;;1.77;;
45893;SDS011;31603;51.148;16.932;2022-07-29T07:13:58;4.97;;;1.90;;
45893;SDS011;31603;51.148;16.932;2022-07-29T07:16:24;3.95;;;1.80;;
45893;SDS011;31603;51.148;16.932;2022-07-29T07:18:52;5.38;;;1.80;;
45893;SDS011;31603;51.148;16.932;2022-07-29T07:21:19;4.40;;;1.90;;
45893;SDS011;31603;51.148;16.932;2022-07-29T07:23:45;5.00;;;1.77;;
45893;SDS011;31603;51.148;16.932;2022-07-29T07:26:12;4.93;;;1.75;;
45893;SDS011;31603;51.148;16.932;2022-07-29T07:28:38;8.13;;;1.90;;
45893;SDS011;31603;51.148;16.932;2022-07-29T07:31:05;5.95;;;1.65;;
45893;SDS011;31603;51.148;16.932;2022-07-29T07:33:31;4.60;;;1.50;;
45893;SDS011;31603;51.148;16.932;2022-07-29T07:36:01;6.75;;;2.30;;
45893;SDS011;31603;51.148;16.932;2022-07-29T07:38:28;3.67;;;2.03;;
45893;SDS011;31603;51.148;16.932;2022-07-29T07:40:56;4.95;;;1.85;;
45893;SDS011;31603;51.148;16.932;2022-07-29T07:43:22;6.60;;;2.10;;
45893;SDS011;31603;51.148;16.932;2022-07-29T07:45:49;5.35;;;1.85;;
45893;SDS011;31603;51.148;16.932;2022-07-29T07:48:18;4.43;;;2.08;;
45893;SDS011;31603;51.148;16.932;2022-07-29T07:50:45;5.18;;;1.85;;
45893;SDS011;31603;51.148;16.932;2022-07-29T07:53:12;2.75;;;1.80;;
45893;SDS011;31603;51.148;16.932;2022-07-29T07:55:39;6.15;;;2.20;;
45893;SDS011;31603;51.148;16.932;2022-07-29T07:58:06;4.60;;;1.63;;
45893;SDS011;31603;51.148;16.932;2022-07-29T08:00:34;3.40;;;1.88;;
45893;SDS011;31603;51.148;16.932;2022-07-29T08:03:01;5.30;;;1.98;;
45893;SDS011;31603;51.148;16.932;2022-07-29T08:05:28;3.95;;;1.50;;
45893;SDS011;31603;51.148;16.932;2022-07-29T08:07:56;4.03;;;1.83;;
45893;SDS011;31603;51.148;16.932;2022-07-29T08:10:26;2.22;;;1.40;;
45893;SDS011;31603;51.148;16.932;2022-07-29T08:13:12;5.80;;;1.50;;
45893;SDS011;31603;51.148;16.932;2022-07-29T08:15:39;4.32;;;1.75;;
45893;SDS011;31603;51.148;16.932;2022-07-29T08:18:08;4.43;;;1.45;;
45893;SDS011;31603;51.148;16.932;2022-07-29T08:20:35;5.97;;;1.80;;
45893;SDS011;31603;51.148;16.932;2022-07-29T08:23:04;4.93;;;1.85;;
45893;SDS011;31603;51.148;16.932;2022-07-29T08:25:36;4.22;;;1.95;;
45893;SDS011;31603;51.148;16.932;2022-07-29T08:28:11;4.63;;;1.52;;
45893;SDS011;31603;51.148;16.932;2022-07-29T08:30:47;4.30;;;1.60;;
45893;SDS011;31603;51.148;16.932;2022-07-29T08:33:18;5.90;;;1.63;;
45893;SDS011;31603;51.148;16.932;2022-07-29T08:35:48;4.25;;;1.73;;
45893;SDS011;31603;51.148;16.932;2022-07-29T08:38:32;6.50;;;1.50;;
45893;SDS011;31603;51.148;16.932;2022-07-29T08:41:03;3.22;;;1.85;;
45893;SDS011;31603;51.148;16.932;2022-07-29T08:43:29;3.50;;;1.50;;
45893;SDS011;31603;51.148;16.932;2022-07-29T08:45:57;4.70;;;1.70;;
45893;SDS011;31603;51.148;16.932;2022-07-29T08:48:23;4.03;;;1.55;;
45893;SDS011;31603;51.148;16.932;2022-07-29T08:50:52;2.60;;;1.77;;
45893;SDS011;31603;51.148;16.932;2022-07-29T08:53:23;3.90;;;1.50;;
45893;SDS011;31603;51.148;16.932;2022-07-29T08:55:52;6.25;;;1.75;;
45893;SDS011;31603;51.148;16.932;2022-07-29T09:01:26;3.40;;;1.63;;
45893;SDS011;31603;51.148;16.932;2022-07-29T09:03:57;6.63;;;1.60;;
45893;SDS011;31603;51.148;16.932;2022-07-29T09:06:51;2.83;;;1.33;;
45893;SDS011;31603;51.148;16.932;2022-07-29T09:09:22;5.07;;;1.75;;
45893;SDS011;31603;51.148;16.932;2022-07-29T09:11:53;6.30;;;1.75;;
45893;SDS011;31603;51.148;16.932;2022-07-29T09:14:21;4.63;;;1.70;;
45893;SDS011;31603;51.148;16.932;2022-07-29T09:17:05;7.15;;;1.85;;
45893;SDS011;31603;51.148;16.932;2022-07-29T09:19:32;5.30;;;1.80;;
45893;SDS011;31603;51.148;16.932;2022-07-29T09:22:01;4.57;;;1.77;;
45893;SDS011;31603;51.148;16.932;2022-07-29T09:24:36;3.28;;;1.45;;
45893;SDS011;31603;51.148;16.932;2022-07-29T09:27:08;4.63;;;1.85;;
45893;SDS011;31603;51.148;16.932;2022-07-29T09:29:57;4.90;;;1.60;;
45893;SDS011;31603;51.148;16.932;2022-07-29T09:35:37;4.72;;;1.52;;
45893;SDS011;31603;51.148;16.932;2022-07-29T09:38:10;3.95;;;1.35;;
45893;SDS011;31603;51.148;16.932;2022-07-29T09:40:45;6.70;;;1.60;;
45893;SDS011;31603;51.148;16.932;2022-07-29T09:43:22;5.63;;;1.65;;
45893;SDS011;31603;51.148;16.932;2022-07-29T09:46:09;3.70;;;1.70;;
45893;SDS011;31603;51.148;16.932;2022-07-29T09:48:39;2.08;;;1.45;;
45893;SDS011;31603;51.148;16.932;2022-07-29T09:51:17;4.10;;;1.48;;
45893;SDS011;31603;51.148;16.932;2022-07-29T09:53:49;7.43;;;1.63;;
45893;SDS011;31603;51.148;16.932;2022-07-29T09:56:15;5.65;;;2.00;;
45893;SDS011;31603;51.148;16.932;2022-07-29T09:59:07;4.55;;;1.60;;
45893;SDS011;31603;51.148;16.932;2022-07-29T10:01:34;3.25;;;1.42;;
45893;SDS011;31603;51.148;16.932;2022-07-29T10:04:05;8.30;;;1.90;;
45893;SDS011;31603;51.148;16.932;2022-07-29T10:06:33;3.67;;;1.73;;
45893;SDS011;31603;51.148;16.932;2022-07-29T10:09:06;6.25;;;2.20;;
45893;SDS011;31603;51.148;16.932;2022-07-29T10:11:38;4.18;;;1.65;;
45893;SDS011;31603;51.148;16.932;2022-07-29T10:14:04;3.42;;;1.60;;
45893;SDS011;31603;51.148;16.932;2022-07-29T10:16:37;5.70;;;2.13;;
45893;SDS011;31603;51.148;16.932;2022-07-29T10:19:07;6.95;;;1.95;;
45893;SDS011;31603;51.148;16.932;2022-07-29T10:21:36;3.10;;;1.77;;
45893;SDS011;31603;51.148;16.932;2022-07-29T10:24:08;3.70;;;2.25;;
45893;SDS011;31603;51.148;16.932;2022-07-29T10:26:35;4.68;;;1.83;;
45893;SDS011;31603;51.148;16.932;2022-07-29T10:29:06;4.90;;;1.70;;
45893;SDS011;31603;51.148;16.932;2022-07-29T10:31:35;5.45;;;1.77;;
45893;SDS011;31603;51.148;16.932;2022-07-29T10:34:11;6.40;;;1.88;;
45893;SDS011;31603;51.148;16.932;2022-07-29T10:36:47;5.00;;;1.95;;
45893;SDS011;31603;51.148;16.932;2022-07-29T10:39:26;1.83;;;1.42;;
45893;SDS011;31603;51.148;16.932;2022-07-29T10:42:10;3.38;;;2.03;;
45893;SDS011;31603;51.148;16.932;2022-07-29T10:45:04;4.55;;;1.98;;
45893;SDS011;31603;51.148;16.932;2022-07-29T10:47:32;5.72;;;2.20;;
45893;SDS011;31603;51.148;16.932;2022-07-29T10:50:00;3.92;;;1.92;;
45893;SDS011;31603;51.148;16.932;2022-07-29T10:55:31;4.63;;;1.80;;
45893;SDS011;31603;51.148;16.932;2022-07-29T10:58:12;6.28;;;2.10;;
45893;SDS011;31603;51.148;16.932;2022-07-29T11:00:39;4.85;;;2.00;;
45893;SDS011;31603;51.148;16.932;2022-07-29T11:03:06;4.93;;;1.92;;
45893;SDS011;31603;51.148;16.932;2022-07-29T11:08:22;6.07;;;2.10;;
45893;SDS011;31603;51.148;16.932;2022-07-29T11:10:51;4.78;;;1.80;;
45893;SDS011;31603;51.148;16.932;2022-07-29T11:16:17;3.15;;;2.13;;
45893;SDS011;31603;51.148;16.932;2022-07-29T11:21:49;4.10;;;2.05;;
45893;SDS011;31603;51.148;16.932;2022-07-29T11:24:21;5.82;;;2.25;;
45893;SDS011;31603;51.148;16.932;2022-07-29T11:27:08;3.75;;;1.95;;
45893;SDS011;31603;51.148;16.932;2022-07-29T11:29:47;6.72;;;2.45;;
45893;SDS011;31603;51.148;16.932;2022-07-29T11:32:16;6.20;;;1.70;;
45893;SDS011;31603;51.148;16.932;2022-07-29T11:34:45;5.25;;;2.30;;
45893;SDS011;31603;51.148;16.932;2022-07-29T11:37:24;7.93;;;2.40;;
45893;SDS011;31603;51.148;16.932;2022-07-29T11:42:52;4.47;;;2.15;;
45893;SDS011;31603;51.148;16.932;2022-07-29T11:48:18;4.55;;;2.40;;
45893;SDS011;31603;51.148;16.932;2022-07-29T11:51:19;3.10;;;1.90;;
45893;SDS011;31603;51.148;16.932;2022-07-29T11:53:56;3.10;;;2.35;;
45893;SDS011;31603;51.148;16.932;2022-07-29T11:56:25;9.13;;;1.90;;
45893;SDS011;31603;51.148;16.932;2022-07-29T11:59:19;3.92;;;2.05;;
45893;SDS011;31603;51.148;16.932;2022-07-29T12:01:59;4.72;;;1.88;;
45893;SDS011;31603;51.148;16.932;2022-07-29T12:04:41;2.80;;;1.95;;
45893;SDS011;31603;51.148;16.932;2022-07-29T12:10:44;6.32;;;2.40;;
45893;SDS011;31603;51.148;16.932;2022-07-29T12:19:19;3.85;;;2.00;;
45893;SDS011;31603;51.148;16.932;2022-07-29T12:22:08;3.17;;;2.08;;
45893;SDS011;31603;51.148;16.932;2022-07-29T12:24:48;4.22;;;2.05;;
45893;SDS011;31603;51.148;16.932;2022-07-29T12:27:38;3.03;;;1.92;;
45893;SDS011;31603;51.148;16.932;2022-07-29T12:30:11;5.15;;;1.60;;
45893;SDS011;31603;51.148;16.932;2022-07-29T12:32:43;4.07;;;1.88;;
45893;SDS011;31603;51.148;16.932;2022-07-29T12:38:02;4.47;;;2.28;;
45893;SDS011;31603;51.148;16.932;2022-07-29T12:42:03;7.32;;;2.22;;
45893;SDS011;31603;51.148;16.932;2022-07-29T12:43:45;2.60;;;2.08;;
45893;SDS011;31603;51.148;16.932;2022-07-29T12:46:52;6.75;;;2.20;;
45893;SDS011;31603;51.148;16.932;2022-07-29T12:49:25;3.30;;;2.20;;
45893;SDS011;31603;51.148;16.932;2022-07-29T12:51:54;3.25;;;2.17;;
45893;SDS011;31603;51.148;16.932;2022-07-29T12:54:26;2.05;;;1.77;;
45893;SDS011;31603;51.148;16.932;2022-07-29T12:57:08;2.72;;;1.73;;
45893;SDS011;31603;51.148;16.932;2022-07-29T12:59:37;5.10;;;2.10;;
45893;SDS011;31603;51.148;16.932;2022-07-29T13:02:04;4.43;;;2.30;;
45893;SDS011;31603;51.148;16.932;2022-07-29T13:04:54;5.32;;;2.58;;
45893;SDS011;31603;51.148;16.932;2022-07-29T13:11:08;4.28;;;2.28;;
45893;SDS011;31603;51.148;16.932;2022-07-29T13:14:08;5.68;;;2.10;;
45893;SDS011;31603;51.148;16.932;2022-07-29T13:19:35;5.43;;;2.30;;
45893;SDS011;31603;51.148;16.932;2022-07-29T13:24:29;5.30;;;2.13;;
45893;SDS011;31603;51.148;16.932;2022-07-29T13:29:46;4.35;;;2.17;;
45893;SDS011;31603;51.148;16.932;2022-07-29T13:32:17;3.95;;;2.03;;
45893;SDS011;31603;51.148;16.932;2022-07-29T13:34:45;4.63;;;2.88;;
45893;SDS011;31603;51.148;16.932;2022-07-29T13:37:28;7.25;;;2.17;;
45893;SDS011;31603;51.148;16.932;2022-07-29T13:40:08;4.75;;;2.53;;
45893;SDS011;31603;51.148;16.932;2022-07-29T13:42:53;4.22;;;2.13;;
45893;SDS011;31603;51.148;16.932;2022-07-29T13:45:25;4.95;;;2.03;;
45893;SDS011;31603;51.148;16.932;2022-07-29T13:47:54;3.10;;;2.38;;
45893;SDS011;31603;51.148;16.932;2022-07-29T13:50:32;15.18;;;2.72;;
45893;SDS011;31603;51.148;16.932;2022-07-29T13:53:13;3.75;;;2.40;;
45893;SDS011;31603;51.148;16.932;2022-07-29T13:55:41;5.88;;;2.50;;
45893;SDS011;31603;51.148;16.932;2022-07-29T14:01:29;3.38;;;2.08;;
45893;SDS011;31603;51.148;16.932;2022-07-29T14:04:18;4.23;;;2.27;;
45893;SDS011;31603;51.148;16.932;2022-07-29T14:07:08;6.32;;;2.28;;
45893;SDS011;31603;51.148;16.932;2022-07-29T14:09:59;6.10;;;2.70;;
45893;SDS011;31603;51.148;16.932;2022-07-29T14:12:46;4.30;;;2.75;;
45893;SDS011;31603;51.148;16.932;2022-07-29T14:18:06;4.88;;;4.28;;
45893;SDS011;31603;51.148;16.932;2022-07-29T14:20:34;6.22;;;3.80;;
45893;SDS011;31603;51.148;16.932;2022-07-29T14:23:12;4.18;;;2.53;;
45893;SDS011;31603;51.148;16.932;2022-07-29T14:25:46;5.43;;;2.80;;
45893;SDS011;31603;51.148;16.932;2022-07-29T14:28:12;6.35;;;2.65;;
45893;SDS011;31603;51.148;16.932;2022-07-29T14:30:43;4.10;;;2.70;;
45893;SDS011;31603;51.148;16.932;2022-07-29T14:33:09;5.03;;;2.78;;
45893;SDS011;31603;51.148;16.932;2022-07-29T14:35:36;6.28;;;2.78;;
45893;SDS011;31603;51.148;16.932;2022-07-29T14:38:03;4.10;;;2.47;;
45893;SDS011;31603;51.148;16.932;2022-07-29T14:40:31;4.28;;;2.28;;
45893;SDS011;31603;51.148;16.932;2022-07-29T14:43:09;5.40;;;2.50;;
45893;SDS011;31603;51.148;16.932;2022-07-29T14:45:36;5.72;;;2.83;;
45893;SDS011;31603;51.148;16.932;2022-07-29T14:48:05;5.32;;;2.47;;
45893;SDS011;31603;51.148;16.932;2022-07-29T14:50:37;3.60;;;2.33;;
45893;SDS011;31603;51.148;16.932;2022-07-29T14:53:03;6.55;;;2.55;;
45893;SDS011;31603;51.148;16.932;2022-07-29T14:55:30;6.40;;;3.08;;
45893;SDS011;31603;51.148;16.932;2022-07-29T14:57:56;6.68;;;2.72;;
45893;SDS011;31603;51.148;16.932;2022-07-29T15:00:23;7.57;;;3.30;;
45893;SDS011;31603;51.148;16.932;2022-07-29T15:02:50;6.60;;;3.35;;
45893;SDS011;31603;51.148;16.932;2022-07-29T15:05:18;5.63;;;2.75;;
45893;SDS011;31603;51.148;16.932;2022-07-29T15:07:45;6.10;;;2.80;;
45893;SDS011;31603;51.148;16.932;2022-07-29T15:10:11;4.65;;;2.55;;
45893;SDS011;31603;51.148;16.932;2022-07-29T15:12:38;7.65;;;3.00;;
45893;SDS011;31603;51.148;16.932;2022-07-29T15:15:05;4.43;;;3.00;;
45893;SDS011;31603;51.148;16.932;2022-07-29T15:17:32;6.82;;;3.42;;
45893;SDS011;31603;51.148;16.932;2022-07-29T15:19:59;5.55;;;3.28;;
45893;SDS011;31603;51.148;16.932;2022-07-29T15:22:26;4.80;;;3.15;;
45893;SDS011;31603;51.148;16.932;2022-07-29T15:24:53;5.35;;;2.20;;
45893;SDS011;31603;51.148;16.932;2022-07-29T15:27:19;6.78;;;3.00;;
45893;SDS011;31603;51.148;16.932;2022-07-29T15:29:46;5.38;;;2.80;;
45893;SDS011;31603;51.148;16.932;2022-07-29T15:32:12;5.43;;;2.20;;
45893;SDS011;31603;51.148;16.932;2022-07-29T15:34:39;6.47;;;5.20;;
45893;SDS011;31603;51.148;16.932;2022-07-29T15:37:05;4.75;;;3.20;;
45893;SDS011;31603;51.148;16.932;2022-07-29T15:39:33;5.82;;;4.40;;
45893;SDS011;31603;51.148;16.932;2022-07-29T15:42:00;6.80;;;3.40;;
45893;SDS011;31603;51.148;16.932;2022-07-29T15:44:26;5.00;;;2.60;;
45893;SDS011;31603;51.148;16.932;2022-07-29T15:46:52;5.95;;;2.45;;
45893;SDS011;31603;51.148;16.932;2022-07-29T15:49:28;4.93;;;2.60;;